Time;durP1;ratioP1;P1;durP2;ratioP2;P2;SDS_P1;SDS_P2;PMS_P1;PMS_P2;Temp;Humidity;BMP_temperature;BMP_pressure;BME280_temperature;BME280_humidity;BME280_pressure;Samples;Min_cycle;Max_cycle;Signal;HPM_P1;HPM_P2
2022/10/20 00:01:04;;;;;;;22.53;19.43;;;6.40;99.90;;;;;;5131867;27;20629;-51
2022/10/20 00:03:33;;;;;;;16.77;13.07;;;6.40;99.90;;;;;;5131813;27;20661;-52
2022/10/20 00:06:08;;;;;;;11.60;10.70;;;6.40;99.90;;;;;;5131787;27;20254;-52
2022/10/20 00:08:36;;;;;;;61.20;47.53;;;6.40;99.90;;;;;;5132144;27;20237;-52
2022/10/20 00:11:06;;;;;;;27.33;19.20;;;6.40;99.90;;;;;;5131857;27;20265;-52
2022/10/20 00:13:35;;;;;;;32.10;22.17;;;6.40;99.90;;;;;;5131400;27;20209;-51
2022/10/20 00:16:03;;;;;;;37.37;28.50;;;6.30;99.90;;;;;;5131609;27;20321;-52
2022/10/20 00:18:31;;;;;;;30.03;20.43;;;6.30;99.90;;;;;;5131388;27;20759;-51
2022/10/20 00:21:00;;;;;;;13.83;11.97;;;6.30;99.90;;;;;;5131961;27;20296;-51
2022/10/20 00:23:28;;;;;;;15.63;13.93;;;6.30;99.90;;;;;;5131370;27;20204;-51
2022/10/20 00:26:03;;;;;;;20.90;19.27;;;6.30;99.90;;;;;;5142680;27;20320;-51
2022/10/20 00:28:32;;;;;;;18.20;10.20;;;6.30;99.90;;;;;;5148965;27;20285;-51
2022/10/20 00:31:01;;;;;;;51.17;30.17;;;6.30;99.90;;;;;;5146821;27;20659;-52
2022/10/20 00:33:29;;;;;;;23.50;21.53;;;6.20;99.90;;;;;;5147519;27;20283;-51
2022/10/20 00:35:58;;;;;;;396.27;122.03;;;6.20;99.90;;;;;;5152331;27;20304;-51
2022/10/20 00:38:27;;;;;;;316.23;139.83;;;6.30;99.90;;;;;;5151698;27;20311;-52
2022/10/20 00:40:55;;;;;;;33.83;24.73;;;6.30;99.90;;;;;;5152332;27;20232;-52
2022/10/20 00:43:23;;;;;;;231.03;100.17;;;6.30;99.90;;;;;;5151587;27;20208;-52
2022/10/20 00:45:56;;;;;;;20.17;15.63;;;6.30;99.90;;;;;;5147282;27;20341;-51
2022/10/20 00:48:35;;;;;;;74.20;42.03;;;6.40;99.90;;;;;;5145608;27;20250;-52
2022/10/20 00:51:03;;;;;;;13.77;11.47;;;6.30;99.90;;;;;;5152200;27;20291;-51
2022/10/20 00:53:31;;;;;;;19.20;15.33;;;6.30;99.90;;;;;;5151619;27;20211;-51
2022/10/20 00:56:01;;;;;;;33.50;23.63;;;6.20;99.90;;;;;;5135870;27;20950;-51
2022/10/20 00:58:29;;;;;;;24.87;18.93;;;6.20;99.90;;;;;;5151952;27;20231;-51
2022/10/20 01:00:59;;;;;;;14.97;13.53;;;6.10;99.90;;;;;;5151514;27;20747;-52
2022/10/20 01:03:34;;;;;;;12.93;11.57;;;6.10;99.90;;;;;;5151472;27;20281;-51
2022/10/20 01:06:03;;;;;;;17.40;15.63;;;6.10;99.90;;;;;;5150925;27;20739;-51
2022/10/20 01:08:31;;;;;;;58.93;37.97;;;6.10;99.90;;;;;;5144107;27;20660;-52
2022/10/20 01:11:09;;;;;;;15.37;12.33;;;6.10;99.90;;;;;;5126582;27;20256;-51
2022/10/20 01:13:47;;;;;;;47.63;26.80;;;6.10;99.90;;;;;;5137775;27;20202;-51
2022/10/20 01:16:25;;;;;;;16.50;13.07;;;6.00;99.90;;;;;;5138266;27;20238;-52
2022/10/20 01:19:02;;;;;;;16.30;12.70;;;5.90;99.90;;;;;;5143771;27;20229;-52
2022/10/20 01:21:43;;;;;;;47.07;35.33;;;5.90;99.90;;;;;;5151743;27;20297;-52
2022/10/20 01:24:49;;;;;;;40.80;27.97;;;5.90;99.90;;;;;;5139956;27;20295;-51
2022/10/20 01:27:31;;;;;;;22.63;20.67;;;5.90;99.90;;;;;;5096876;27;20314;-52
2022/10/20 01:30:10;;;;;;;23.27;21.23;;;5.80;99.90;;;;;;5151268;27;20201;-52
2022/10/20 01:33:05;;;;;;;33.07;26.13;;;5.80;99.90;;;;;;5131364;27;20298;-52
2022/10/20 01:35:42;;;;;;;19.77;17.03;;;5.80;99.90;;;;;;5121321;27;20280;-52
2022/10/20 01:38:20;;;;;;;16.83;15.63;;;5.70;99.90;;;;;;5151195;27;20230;-52
2022/10/20 01:40:52;;;;;;;14.43;13.00;;;5.70;99.90;;;;;;5150646;27;20226;-52
2022/10/20 01:43:25;;;;;;;22.97;21.13;;;5.70;99.90;;;;;;5150635;27;20704;-52
2022/10/20 01:45:55;;;;;;;26.03;21.87;;;5.60;99.90;;;;;;5150819;27;20313;-52
2022/10/20 01:48:28;;;;;;;19.67;18.00;;;5.60;99.90;;;;;;5151250;27;20573;-51
2022/10/20 01:50:56;;;;;;;36.90;29.47;;;5.60;99.90;;;;;;5151452;27;20315;-51
2022/10/20 01:53:24;;;;;;;30.73;26.10;;;5.60;99.90;;;;;;5151006;27;20666;-51
2022/10/20 01:55:54;;;;;;;26.33;23.53;;;5.60;99.90;;;;;;5150993;27;20350;-51
2022/10/20 01:58:52;;;;;;;18.33;14.57;;;5.50;99.90;;;;;;5146205;27;20313;-51
2022/10/20 02:01:34;;;;;;;28.60;18.73;;;5.50;99.90;;;;;;5126670;27;20702;-51
2022/10/20 02:04:04;;;;;;;15.37;13.97;;;5.50;99.90;;;;;;5150821;27;20201;-51
2022/10/20 02:06:40;;;;;;;26.53;20.83;;;5.50;99.90;;;;;;5150551;27;20226;-51
2022/10/20 02:09:13;;;;;;;18.60;16.83;;;5.40;99.90;;;;;;5150718;27;20203;-52
2022/10/20 02:11:46;;;;;;;28.60;26.27;;;5.40;99.90;;;;;;5150790;27;20203;-52
2022/10/20 02:14:17;;;;;;;17.67;15.07;;;5.40;99.90;;;;;;5150681;27;20209;-52
2022/10/20 02:16:49;;;;;;;40.63;24.83;;;5.40;99.90;;;;;;5150359;27;20247;-51
2022/10/20 02:19:20;;;;;;;40.13;36.00;;;5.40;99.90;;;;;;5150086;27;20214;-51
2022/10/20 02:21:51;;;;;;;16.47;14.70;;;5.40;99.90;;;;;;5150692;27;20297;-52
2022/10/20 02:24:23;;;;;;;104.73;52.60;;;5.40;99.90;;;;;;5138796;27;20288;-51
2022/10/20 02:26:54;;;;;;;16.87;15.50;;;5.40;99.90;;;;;;5148582;27;20224;-52
2022/10/20 02:29:28;;;;;;;22.10;20.17;;;5.40;99.90;;;;;;5150622;27;20287;-51
2022/10/20 02:31:58;;;;;;;29.57;23.43;;;5.40;99.90;;;;;;5135311;27;20351;-52
2022/10/20 02:34:26;;;;;;;22.90;17.13;;;5.40;99.90;;;;;;5151142;27;20293;-51
2022/10/20 02:36:56;;;;;;;64.87;43.03;;;5.30;99.90;;;;;;5128558;27;20314;-51
2022/10/20 02:39:25;;;;;;;40.60;35.30;;;5.30;99.90;;;;;;5128593;27;20220;-52
2022/10/20 02:41:53;;;;;;;126.77;64.37;;;5.30;99.90;;;;;;5128740;27;20297;-52
2022/10/20 02:44:21;;;;;;;221.23;144.33;;;5.30;99.90;;;;;;5129705;27;20300;-52
2022/10/20 02:46:49;;;;;;;15.90;14.30;;;5.30;99.90;;;;;;5129015;28;20224;-52
2022/10/20 02:49:20;;;;;;;13.77;11.33;;;5.30;99.90;;;;;;5129912;27;20278;-51
2022/10/20 02:51:48;;;;;;;29.93;27.13;;;5.40;99.90;;;;;;5131139;27;20201;-52
2022/10/20 02:54:16;;;;;;;65.90;39.83;;;5.40;99.90;;;;;;5133279;27;20294;-51
2022/10/20 02:56:44;;;;;;;17.03;14.63;;;5.30;99.90;;;;;;5132946;27;20308;-51
2022/10/20 02:59:14;;;;;;;17.93;16.50;;;5.20;99.90;;;;;;5133143;27;20771;-51
2022/10/20 03:01:42;;;;;;;14.03;12.23;;;5.20;99.90;;;;;;5133135;27;20293;-52
2022/10/20 03:04:10;;;;;;;25.90;20.23;;;5.10;99.90;;;;;;5133518;27;20206;-52
2022/10/20 03:06:40;;;;;;;14.07;11.77;;;5.10;99.90;;;;;;5120271;27;20226;-52
2022/10/20 03:09:09;;;;;;;19.63;16.37;;;5.10;99.90;;;;;;5133723;27;20195;-52
2022/10/20 03:11:37;;;;;;;20.90;18.70;;;5.10;99.90;;;;;;5133976;27;20202;-52
2022/10/20 03:14:05;;;;;;;22.17;19.93;;;5.00;99.90;;;;;;5132985;27;20282;-52
2022/10/20 03:16:33;;;;;;;22.80;20.60;;;5.00;99.90;;;;;;5132502;27;20219;-52
2022/10/20 03:19:01;;;;;;;35.67;25.07;;;5.00;99.90;;;;;;5132998;27;20287;-51
2022/10/20 03:21:34;;;;;;;26.17;23.50;;;5.00;99.90;;;;;;5132808;27;20207;-51
2022/10/20 03:24:04;;;;;;;21.10;18.67;;;4.90;99.90;;;;;;5132075;27;20203;-52
2022/10/20 03:26:32;;;;;;;22.30;20.50;;;4.90;99.90;;;;;;5133003;27;20291;-51
2022/10/20 03:29:00;;;;;;;25.70;23.63;;;4.90;99.90;;;;;;5132918;27;20207;-52
2022/10/20 03:31:28;;;;;;;15.33;11.50;;;4.90;99.90;;;;;;5123793;27;20208;-52
2022/10/20 03:33:56;;;;;;;22.67;20.57;;;4.80;99.90;;;;;;5116680;27;20199;-52
2022/10/20 03:36:24;;;;;;;41.13;27.17;;;4.80;99.90;;;;;;5132660;27;20261;-51
2022/10/20 03:38:52;;;;;;;35.33;32.20;;;4.80;99.90;;;;;;5132549;27;20656;-52
2022/10/20 03:41:22;;;;;;;17.13;14.97;;;4.80;99.90;;;;;;5132500;27;20293;-51
2022/10/20 03:43:50;;;;;;;14.53;13.00;;;4.80;99.90;;;;;;5131333;27;20318;-52
2022/10/20 03:46:18;;;;;;;17.87;15.43;;;4.80;99.90;;;;;;5132251;27;20309;-52
2022/10/20 03:48:46;;;;;;;27.83;25.27;;;4.80;99.90;;;;;;5132660;27;20239;-51
2022/10/20 03:51:14;;;;;;;29.93;20.47;;;4.80;99.90;;;;;;5132413;27;20297;-52
2022/10/20 03:53:42;;;;;;;34.40;31.57;;;4.80;99.90;;;;;;5131576;27;20211;-52
2022/10/20 03:56:15;;;;;;;30.10;27.27;;;4.80;99.90;;;;;;5131875;27;20324;-52
2022/10/20 03:58:44;;;;;;;34.60;31.30;;;4.80;99.90;;;;;;5132380;27;20840;-51
2022/10/20 04:01:14;;;;;;;25.13;22.53;;;4.80;99.90;;;;;;5131709;27;20715;-51
2022/10/20 04:03:43;;;;;;;95.27;55.27;;;4.80;99.90;;;;;;5131036;27;20259;-51
2022/10/20 04:06:12;;;;;;;44.30;30.30;;;4.80;99.90;;;;;;5131543;27;20731;-52
2022/10/20 04:08:40;;;;;;;18.47;16.87;;;4.80;99.90;;;;;;5131647;27;20645;-51
2022/10/20 04:11:09;;;;;;;27.10;23.67;;;4.70;99.90;;;;;;5131899;27;20292;-51
2022/10/20 04:13:37;;;;;;;19.40;15.63;;;4.80;99.90;;;;;;5131504;27;20213;-52
2022/10/20 04:16:07;;;;;;;31.43;28.70;;;4.80;99.90;;;;;;5130957;27;20273;-52
2022/10/20 04:18:35;;;;;;;24.53;18.57;;;4.80;99.90;;;;;;5132060;27;20287;-52
2022/10/20 04:21:03;;;;;;;16.63;11.90;;;4.70;99.90;;;;;;5131648;27;20304;-51
2022/10/20 04:23:31;;;;;;;27.53;22.73;;;4.70;99.90;;;;;;5131643;27;20225;-52
2022/10/20 04:25:59;;;;;;;20.77;18.70;;;4.70;99.90;;;;;;5130973;27;20294;-51
2022/10/20 04:28:27;;;;;;;19.73;17.93;;;4.60;99.90;;;;;;5131267;27;20232;-52
2022/10/20 04:30:56;;;;;;;20.27;18.30;;;4.70;99.90;;;;;;5127502;27;20289;-51
2022/10/20 04:33:25;;;;;;;17.40;15.63;;;4.70;99.90;;;;;;5119953;27;20205;-51
2022/10/20 04:35:58;;;;;;;13.60;12.07;;;4.70;99.90;;;;;;5131574;27;20242;-52
2022/10/20 04:38:26;;;;;;;22.00;19.97;;;4.70;99.90;;;;;;5131889;27;20299;-51
2022/10/20 04:40:54;;;;;;;17.70;15.53;;;4.70;99.90;;;;;;5131148;27;20322;-52
2022/10/20 04:43:27;;;;;;;47.10;37.13;;;4.60;99.90;;;;;;5131359;27;20264;-51
2022/10/20 04:45:59;;;;;;;22.63;20.83;;;4.60;99.90;;;;;;5130766;27;20258;-51
2022/10/20 04:48:35;;;;;;;32.40;29.87;;;4.60;99.90;;;;;;5130868;27;20281;-52
2022/10/20 04:51:05;;;;;;;21.73;19.47;;;4.60;99.90;;;;;;5131308;27;20572;-51
2022/10/20 04:53:33;;;;;;;27.20;25.20;;;4.60;99.90;;;;;;5130676;27;20205;-52
2022/10/20 04:56:02;;;;;;;18.40;16.67;;;4.60;99.90;;;;;;5130975;27;20323;-52
2022/10/20 04:58:30;;;;;;;23.33;20.97;;;4.60;99.90;;;;;;5130927;27;20324;-51
2022/10/20 05:01:01;;;;;;;21.80;19.53;;;4.60;99.90;;;;;;5130842;27;20327;-52
2022/10/20 05:03:29;;;;;;;230.63;112.70;;;4.60;99.90;;;;;;5130622;27;20228;-52
2022/10/20 05:06:10;;;;;;;19.33;17.03;;;4.60;99.90;;;;;;5131094;27;20704;-52
2022/10/20 05:08:39;;;;;;;16.77;14.97;;;4.60;99.90;;;;;;5130556;27;20255;-52
2022/10/20 05:11:08;;;;;;;44.83;40.23;;;4.60;99.90;;;;;;5130785;27;20206;-52
2022/10/20 05:13:37;;;;;;;30.57;28.07;;;4.60;99.90;;;;;;5130131;27;20912;-51
2022/10/20 05:16:06;;;;;;;23.93;21.47;;;4.60;99.90;;;;;;5130271;27;20601;-50
2022/10/20 05:18:35;;;;;;;27.83;24.97;;;4.60;99.90;;;;;;5131027;27;20211;-52
2022/10/20 05:21:06;;;;;;;19.50;15.20;;;4.60;99.90;;;;;;5130225;27;20334;-51
2022/10/20 05:23:39;;;;;;;19.30;15.00;;;4.60;99.90;;;;;;5130322;27;20764;-52
2022/10/20 05:26:09;;;;;;;40.40;34.97;;;4.70;99.90;;;;;;5130590;27;20230;-52
2022/10/20 05:28:37;;;;;;;39.30;27.60;;;4.70;99.90;;;;;;5130633;27;20218;-51
2022/10/20 05:31:07;;;;;;;23.97;21.50;;;4.70;99.90;;;;;;5124108;27;20741;-51
2022/10/20 05:33:36;;;;;;;34.70;30.57;;;4.70;99.90;;;;;;5115412;27;20287;-51
2022/10/20 05:36:09;;;;;;;26.33;23.70;;;4.60;99.90;;;;;;5130389;27;20312;-52
2022/10/20 05:38:39;;;;;;;31.53;28.83;;;4.70;99.90;;;;;;5130438;27;20205;-51
2022/10/20 05:41:09;;;;;;;26.17;18.50;;;4.70;99.90;;;;;;5129978;27;20792;-51
2022/10/20 05:43:37;;;;;;;27.23;24.83;;;4.80;99.90;;;;;;5129540;27;20299;-51
2022/10/20 05:46:06;;;;;;;38.87;34.83;;;4.70;99.90;;;;;;5130027;27;20750;-52
2022/10/20 05:48:34;;;;;;;36.77;33.03;;;4.80;99.90;;;;;;5124968;27;20210;-51
2022/10/20 05:51:11;;;;;;;23.90;21.47;;;4.80;99.90;;;;;;5128734;27;20237;-52
2022/10/20 05:53:44;;;;;;;35.33;30.40;;;4.80;99.90;;;;;;5129192;27;20290;-52
2022/10/20 05:56:14;;;;;;;558.87;196.60;;;4.80;99.90;;;;;;5144164;27;20357;-51
2022/10/20 05:58:42;;;;;;;22.03;19.80;;;4.90;99.90;;;;;;5149101;27;20206;-52
2022/10/20 06:01:15;;;;;;;23.90;20.80;;;4.90;99.90;;;;;;5143250;27;20233;-51
2022/10/20 06:03:47;;;;;;;27.23;24.43;;;4.90;99.90;;;;;;5144264;27;20209;-52
2022/10/20 06:06:15;;;;;;;35.40;29.27;;;4.90;99.90;;;;;;5151290;27;20218;-52
2022/10/20 06:08:45;;;;;;;23.70;18.10;;;5.00;99.90;;;;;;5140181;27;20649;-52
2022/10/20 06:11:15;;;;;;;24.37;19.27;;;5.00;99.90;;;;;;5148379;27;20801;-51
2022/10/20 06:13:43;;;;;;;31.83;26.80;;;5.10;99.90;;;;;;5148876;27;20627;-51
2022/10/20 06:16:20;;;;;;;31.83;28.67;;;5.20;99.90;;;;;;5141638;27;20230;-52
2022/10/20 06:18:48;;;;;;;28.10;25.20;;;5.40;99.90;;;;;;5148958;27;20241;-51
2022/10/20 06:21:18;;;;;;;38.07;27.33;;;5.50;99.90;;;;;;5151060;27;20301;-51
2022/10/20 06:23:48;;;;;;;32.30;29.23;;;5.50;99.90;;;;;;5150453;27;20288;-51
2022/10/20 06:26:18;;;;;;;83.90;55.63;;;5.60;99.90;;;;;;5151464;27;20335;-52
2022/10/20 06:28:48;;;;;;;65.27;56.17;;;5.60;99.90;;;;;;5148148;27;20301;-51
2022/10/20 06:31:19;;;;;;;39.97;29.63;;;5.70;99.90;;;;;;5147324;27;20194;-52
2022/10/20 06:33:48;;;;;;;61.83;38.73;;;5.80;99.90;;;;;;5148165;27;20241;-51
2022/10/20 06:36:17;;;;;;;28.23;19.87;;;5.90;99.90;;;;;;5154998;27;20305;-51
2022/10/20 06:38:47;;;;;;;57.30;35.00;;;6.10;99.90;;;;;;5154143;27;20206;-51
2022/10/20 06:41:17;;;;;;;31.47;23.50;;;6.30;99.90;;;;;;5154873;27;20771;-51
2022/10/20 06:43:45;;;;;;;60.10;41.33;;;6.40;99.90;;;;;;5151939;27;20722;-51
2022/10/20 06:46:16;;;;;;;71.27;48.53;;;6.60;99.90;;;;;;5123567;27;20314;-50
2022/10/20 06:48:44;;;;;;;38.00;28.13;;;6.70;99.90;;;;;;5120980;27;20206;-51
2022/10/20 06:51:14;;;;;;;28.43;24.70;;;6.80;99.90;;;;;;5134176;27;20306;-51
2022/10/20 06:53:43;;;;;;;47.80;34.30;;;6.90;99.90;;;;;;5132416;27;20314;-51
2022/10/20 06:56:16;;;;;;;70.73;46.67;;;7.00;99.90;;;;;;5133331;27;20228;-51
2022/10/20 06:58:47;;;;;;;111.47;47.90;;;7.00;99.90;;;;;;5134157;27;20290;-52
2022/10/20 07:01:17;;;;;;;105.30;70.77;;;7.20;99.90;;;;;;5133397;27;20306;-51
2022/10/20 07:03:46;;;;;;;145.43;72.27;;;7.20;99.90;;;;;;5133015;27;20210;-51
2022/10/20 07:06:16;;;;;;;39.80;35.63;;;7.40;99.90;;;;;;5132696;27;20333;-51
2022/10/20 07:08:45;;;;;;;26.10;21.13;;;7.40;99.90;;;;;;5121719;27;20723;-51
2022/10/20 07:11:17;;;;;;;189.50;87.47;;;7.60;99.90;;;;;;5131071;27;20198;-51
2022/10/20 07:13:46;;;;;;;614.33;222.63;;;7.60;99.90;;;;;;5132208;27;20289;-51
2022/10/20 07:16:16;;;;;;;287.07;168.43;;;7.70;99.90;;;;;;5132797;27;20661;-52
2022/10/20 07:18:44;;;;;;;140.43;72.87;;;7.70;99.90;;;;;;5133201;27;20232;-52
2022/10/20 07:21:15;;;;;;;275.30;124.87;;;7.80;99.90;;;;;;5132718;27;20236;-52
2022/10/20 07:23:44;;;;;;;30.97;24.50;;;7.90;99.90;;;;;;5132238;27;20210;-52
2022/10/20 07:26:15;;;;;;;296.50;124.67;;;7.90;99.90;;;;;;5132280;27;20784;-51
2022/10/20 07:28:45;;;;;;;160.47;92.93;;;8.00;99.90;;;;;;5133057;27;20214;-52
2022/10/20 07:31:16;;;;;;;273.83;176.70;;;8.10;99.90;;;;;;5126371;27;20992;-52
2022/10/20 07:33:44;;;;;;;426.80;209.33;;;8.10;99.90;;;;;;5130927;27;20643;-51
2022/10/20 07:36:34;;;;;;;127.87;62.73;;;8.10;99.90;;;;;;5133016;27;20576;-51
2022/10/20 07:39:05;;;;;;;865.17;308.07;;;8.10;99.90;;;;;;5131168;27;20334;-51
2022/10/20 07:41:38;;;;;;;654.97;248.70;;;8.20;99.90;;;;;;5127703;27;20309;-51
2022/10/20 07:44:07;;;;;;;291.40;144.90;;;8.30;99.90;;;;;;5131348;27;20225;-52
2022/10/20 07:46:35;;;;;;;256.23;128.80;;;8.50;99.90;;;;;;5132270;27;20244;-51
2022/10/20 07:49:03;;;;;;;359.20;175.77;;;8.50;99.90;;;;;;5131816;27;20203;-52
2022/10/20 07:51:51;;;;;;;340.93;194.57;;;8.70;99.90;;;;;;5131680;27;20202;-52
2022/10/20 07:54:19;;;;;;;424.97;215.47;;;8.80;99.90;;;;;;5127237;27;20690;-51
2022/10/20 07:56:49;;;;;;;474.30;226.30;;;8.90;99.90;;;;;;5125721;27;20317;-52
2022/10/20 07:59:17;;;;;;;199.43;107.57;;;9.00;99.90;;;;;;5131867;27;20274;-51
2022/10/20 08:01:45;;;;;;;426.07;282.43;;;9.10;99.90;;;;;;5131473;27;20305;-52
2022/10/20 08:04:13;;;;;;;314.73;165.60;;;9.10;99.90;;;;;;5131762;27;20212;-52
2022/10/20 08:06:41;;;;;;;25.73;22.77;;;9.20;99.90;;;;;;5132026;27;20234;-52
2022/10/20 08:09:10;;;;;;;242.93;129.87;;;9.20;99.90;;;;;;5132083;27;20675;-51
2022/10/20 08:11:38;;;;;;;254.80;124.40;;;9.20;99.90;;;;;;5131970;27;20297;-51
2022/10/20 08:14:07;;;;;;;485.50;211.97;;;9.20;99.90;;;;;;5131963;27;20305;-51
2022/10/20 08:16:35;;;;;;;72.53;35.07;;;9.20;99.90;;;;;;5131798;27;20227;-51
2022/10/20 08:19:03;;;;;;;222.40;118.77;;;9.20;99.90;;;;;;5131752;27;20235;-51
2022/10/20 08:21:34;;;;;;;215.07;81.63;;;9.30;99.90;;;;;;5131618;27;20232;-51
2022/10/20 08:24:02;;;;;;;379.67;201.20;;;9.40;99.90;;;;;;5131295;27;20212;-52
2022/10/20 08:26:30;;;;;;;51.57;39.43;;;9.40;99.90;;;;;;5131822;27;20238;-51
2022/10/20 08:28:58;;;;;;;26.87;20.07;;;9.50;99.90;;;;;;5132344;27;20302;-53
2022/10/20 08:31:28;;;;;;;310.83;170.27;;;9.60;99.90;;;;;;5126229;27;20296;-51
2022/10/20 08:33:56;;;;;;;196.13;129.67;;;9.60;99.90;;;;;;5132383;27;20196;-52
2022/10/20 08:36:24;;;;;;;591.00;375.30;;;9.70;99.90;;;;;;5131963;27;20605;-51
2022/10/20 08:38:53;;;;;;;166.17;93.40;;;9.80;99.90;;;;;;5131879;27;20274;-52
2022/10/20 08:41:23;;;;;;;713.80;331.97;;;9.90;99.90;;;;;;5132043;27;20218;-51
2022/10/20 08:43:55;;;;;;;387.30;202.10;;;9.90;99.90;;;;;;5119345;27;20250;-51
2022/10/20 08:46:28;;;;;;;279.60;210.87;;;10.00;99.90;;;;;;5133259;27;20254;-51
2022/10/20 08:48:58;;;;;;;246.93;142.57;;;10.10;99.90;;;;;;5131093;27;20207;-51
2022/10/20 08:51:30;;;;;;;356.80;208.07;;;10.20;99.90;;;;;;5130832;27;20313;-50
2022/10/20 08:54:00;;;;;;;305.07;125.50;;;10.20;99.90;;;;;;5131398;27;20199;-50
2022/10/20 08:56:30;;;;;;;380.43;239.60;;;10.30;99.90;;;;;;5130652;27;20318;-50
2022/10/20 08:58:58;;;;;;;340.90;248.50;;;10.40;99.90;;;;;;5131651;27;20318;-51
2022/10/20 09:01:29;;;;;;;586.90;341.97;;;10.40;99.90;;;;;;5130793;27;20749;-51
2022/10/20 09:04:04;;;;;;;716.97;347.23;;;10.40;99.90;;;;;;5130905;27;20558;-51
2022/10/20 09:06:33;;;;;;;606.57;405.00;;;10.40;99.90;;;;;;5131154;27;20317;-50
2022/10/20 09:09:01;;;;;;;675.37;331.73;;;10.50;99.90;;;;;;5130717;27;20294;-51
2022/10/20 09:11:36;;;;;;;358.63;191.13;;;10.50;99.90;;;;;;5131010;27;20241;-51
2022/10/20 09:14:04;;;;;;;512.83;330.93;;;10.60;99.90;;;;;;5130711;27;20199;-51
2022/10/20 09:16:37;;;;;;;548.90;264.67;;;10.60;99.90;;;;;;5130578;27;20219;-51
2022/10/20 09:19:16;;;;;;;750.53;424.90;;;10.70;99.90;;;;;;5131060;27;20249;-51
2022/10/20 09:21:47;;;;;;;392.17;176.83;;;10.70;99.90;;;;;;5116647;27;20202;-51
2022/10/20 09:24:15;;;;;;;407.30;213.57;;;10.70;99.90;;;;;;5130933;27;20314;-50
2022/10/20 09:26:45;;;;;;;378.93;250.80;;;10.80;99.90;;;;;;5130346;27;20890;-51
2022/10/20 09:29:36;;;;;;;883.03;525.57;;;10.80;99.90;;;;;;5130425;27;20202;-52
2022/10/20 09:32:16;;;;;;;754.23;451.47;;;10.90;99.90;;;;;;5123363;27;20241;-51
2022/10/20 09:35:26;;;;;;;531.17;305.13;;;11.00;99.90;;;;;;5129200;27;20209;-52
2022/10/20 09:38:04;;;;;;;784.00;507.83;;;11.10;99.90;;;;;;5130618;27;20286;-52
2022/10/20 09:40:32;;;;;;;596.90;343.77;;;11.20;99.90;;;;;;5117130;27;20282;-51
2022/10/20 09:43:06;;;;;;;473.37;309.47;;;11.30;99.90;;;;;;5129686;27;20569;-51
2022/10/20 09:45:37;;;;;;;844.10;469.60;;;11.40;99.90;;;;;;5129924;27;20230;-50
2022/10/20 09:48:21;;;;;;;809.63;437.60;;;11.50;99.90;;;;;;5129441;27;20215;-51
2022/10/20 09:50:54;;;;;;;693.57;459.40;;;11.60;99.90;;;;;;5130454;27;20923;-51
2022/10/20 09:53:27;;;;;;;645.40;404.97;;;11.70;99.90;;;;;;5124226;27;20237;-51
2022/10/20 09:55:56;;;;;;;890.47;532.83;;;11.80;99.90;;;;;;5128167;27;20222;-51
2022/10/20 09:58:27;;;;;;;970.73;462.87;;;11.90;99.90;;;;;;5129625;27;20248;-51
2022/10/20 10:00:59;;;;;;;748.30;444.10;;;11.90;99.90;;;;;;5129538;27;20290;-51
2022/10/20 10:03:27;;;;;;;903.10;477.53;;;11.90;99.90;;;;;;5129424;27;20218;-51
2022/10/20 10:05:58;;;;;;;755.13;443.67;;;12.00;99.90;;;;;;5129603;27;20231;-51
2022/10/20 10:08:29;;;;;;;625.53;294.83;;;12.00;99.90;;;;;;5130153;27;20305;-51
2022/10/20 10:11:03;;;;;;;836.90;498.10;;;12.10;99.90;;;;;;5129432;27;20210;-50
2022/10/20 10:13:39;;;;;;;762.80;464.03;;;12.20;99.90;;;;;;5124546;28;20762;-51
2022/10/20 10:16:09;;;;;;;553.53;280.17;;;12.30;99.90;;;;;;5129489;27;20662;-51
2022/10/20 10:18:38;;;;;;;643.63;326.53;;;12.30;99.90;;;;;;5130179;27;20285;-51
2022/10/20 10:21:10;;;;;;;726.10;317.10;;;12.40;99.90;;;;;;5129722;27;20646;-51
2022/10/20 10:23:51;;;;;;;765.10;508.47;;;12.50;99.90;;;;;;5129451;27;20301;-50
2022/10/20 10:26:44;;;;;;;756.27;462.83;;;12.60;99.90;;;;;;5129604;27;20309;-51
2022/10/20 10:29:18;;;;;;;715.50;402.20;;;12.60;99.90;;;;;;5129229;27;20218;-51
2022/10/20 10:31:51;;;;;;;575.97;394.57;;;12.70;99.90;;;;;;5123039;27;20207;-51
2022/10/20 10:34:50;;;;;;;818.80;357.90;;;12.70;99.90;;;;;;5128609;27;20282;-51
2022/10/20 10:37:20;;;;;;;725.37;375.53;;;12.80;99.90;;;;;;5128562;27;20237;-51
2022/10/20 10:39:53;;;;;;;725.90;399.00;;;12.80;99.90;;;;;;5129146;27;20202;-51
2022/10/20 10:42:46;;;;;;;702.80;448.67;;;12.80;99.90;;;;;;5128932;27;20211;-51
2022/10/20 10:45:22;;;;;;;680.93;454.63;;;12.80;99.90;;;;;;5129069;27;20282;-51
2022/10/20 10:48:12;;;;;;;732.07;459.73;;;12.70;99.90;;;;;;5129089;27;20289;-51
2022/10/20 10:50:47;;;;;;;1153.83;574.47;;;12.70;99.90;;;;;;5129597;27;20285;-51
2022/10/20 10:53:40;;;;;;;757.10;321.40;;;12.60;99.90;;;;;;5129148;27;20230;-51
2022/10/20 10:56:16;;;;;;;637.87;343.20;;;12.60;99.90;;;;;;5118712;28;20302;-51
2022/10/20 10:58:50;;;;;;;635.37;312.50;;;12.70;99.90;;;;;;5129358;27;20305;-51
2022/10/20 11:01:44;;;;;;;714.87;442.40;;;12.80;99.90;;;;;;5128712;27;20278;-51
2022/10/20 11:04:51;;;;;;;491.97;293.83;;;12.70;99.90;;;;;;5105581;27;20313;-51
2022/10/20 11:07:33;;;;;;;700.57;486.67;;;12.60;99.90;;;;;;5098080;27;20235;-51
2022/10/20 11:10:09;;;;;;;872.37;529.43;;;12.50;99.90;;;;;;5128518;27;20708;-51
2022/10/20 11:12:51;;;;;;;769.67;418.27;;;12.50;99.90;;;;;;5129873;27;20210;-51
2022/10/20 11:15:31;;;;;;;794.90;502.73;;;12.50;99.90;;;;;;5133088;27;20227;-51
2022/10/20 11:18:09;;;;;;;737.70;431.03;;;12.40;99.90;;;;;;5132316;27;20201;-51
2022/10/20 11:20:44;;;;;;;345.73;240.87;;;12.40;99.90;;;;;;5133215;27;20514;-51
2022/10/20 11:23:29;;;;;;;731.80;504.87;;;12.40;99.90;;;;;;5132097;27;20306;-51
2022/10/20 11:26:08;;;;;;;829.87;382.87;;;12.40;99.90;;;;;;5130521;27;20589;-52
2022/10/20 11:28:43;;;;;;;627.47;370.17;;;12.40;99.90;;;;;;5121519;27;20657;-51
2022/10/20 11:31:22;;;;;;;693.80;430.97;;;12.40;99.90;;;;;;5126355;27;20259;-51
2022/10/20 11:33:56;;;;;;;1032.77;417.40;;;12.40;99.90;;;;;;5130867;27;20282;-52
2022/10/20 11:36:30;;;;;;;535.30;424.80;;;12.30;99.90;;;;;;5132743;27;20344;-51
2022/10/20 11:38:58;;;;;;;517.13;270.93;;;12.30;99.90;;;;;;5132043;27;20206;-52
2022/10/20 11:41:33;;;;;;;411.67;232.07;;;12.30;99.90;;;;;;5131446;27;20325;-52
2022/10/20 11:44:21;;;;;;;697.97;418.73;;;12.30;99.90;;;;;;5143321;27;20242;-51
2022/10/20 11:46:52;;;;;;;655.67;351.07;;;12.30;99.90;;;;;;5132143;27;20314;-52
2022/10/20 11:49:21;;;;;;;785.83;540.40;;;12.30;99.90;;;;;;5118250;27;21005;-52
2022/10/20 11:52:40;;;;;;;897.00;620.03;;;12.30;99.90;;;;;;5131909;27;20294;-51
2022/10/20 11:55:32;;;;;;;645.33;376.37;;;12.40;99.90;;;;;;5132260;27;20199;-52
2022/10/20 11:58:20;;;;;;;634.07;354.93;;;12.40;99.90;;;;;;5132247;27;20659;-52
2022/10/20 12:00:59;;;;;;;521.87;318.70;;;12.30;99.90;;;;;;5132393;27;20238;-51
2022/10/20 12:04:04;;;;;;;1023.67;548.33;;;12.40;99.90;;;;;;5131124;27;20663;-51
2022/10/20 12:06:54;;;;;;;603.03;347.13;;;12.40;99.90;;;;;;5132325;27;20306;-51
2022/10/20 12:09:51;;;;;;;813.47;454.57;;;12.40;99.90;;;;;;5131915;27;20207;-51
2022/10/20 12:12:25;;;;;;;557.93;334.70;;;12.50;99.90;;;;;;5130206;27;20690;-52
2022/10/20 12:14:58;;;;;;;922.80;588.20;;;12.50;99.90;;;;;;5131336;27;20199;-51
2022/10/20 12:17:35;;;;;;;734.20;382.07;;;12.50;99.90;;;;;;5121887;27;20236;-51
2022/10/20 12:20:40;;;;;;;715.90;395.33;;;12.50;99.90;;;;;;5127816;27;20215;-51
2022/10/20 12:23:48;;;;;;;666.03;439.10;;;12.50;99.90;;;;;;5130882;27;20632;-52
2022/10/20 12:26:53;;;;;;;615.13;335.57;;;12.50;99.90;;;;;;5121737;27;20230;-52
2022/10/20 12:29:47;;;;;;;621.77;354.93;;;12.40;99.90;;;;;;5121334;27;20231;-51
2022/10/20 12:32:36;;;;;;;775.53;375.33;;;12.40;99.90;;;;;;5130517;27;20238;-51
2022/10/20 12:35:53;;;;;;;727.93;409.30;;;12.40;99.90;;;;;;5116393;27;20207;-51
2022/10/20 12:38:22;;;;;;;613.07;380.00;;;12.50;99.90;;;;;;5124936;27;20213;-52
2022/10/20 12:40:56;;;;;;;733.90;387.87;;;12.50;99.90;;;;;;5112777;27;20267;-51
2022/10/20 12:43:32;;;;;;;817.20;510.80;;;12.50;99.90;;;;;;5130793;27;20973;-52
2022/10/20 12:46:07;;;;;;;774.80;469.57;;;12.50;99.90;;;;;;5112260;27;20335;-51
2022/10/20 12:48:44;;;;;;;543.97;222.97;;;12.50;99.90;;;;;;5124925;27;20210;-51
2022/10/20 12:51:22;;;;;;;583.77;294.07;;;12.60;99.90;;;;;;5118607;27;20210;-54
2022/10/20 12:53:56;;;;;;;584.87;363.70;;;12.60;99.90;;;;;;5130807;27;20701;-52
2022/10/20 12:56:35;;;;;;;727.40;407.00;;;12.70;99.90;;;;;;5130541;27;20250;-52